Time;durP1;ratioP1;P1;durP2;ratioP2;P2;SDS_P1;SDS_P2;PMS_P1;PMS_P2;Temp;Humidity;BMP_temperature;BMP_pressure;BME280_temperature;BME280_humidity;BME280_pressure;Samples;Min_cycle;Max_cycle;Signal;HPM_P1;HPM_P2
2021/09/04 00:00:40;;;;;;;7.40;4.85;;;;;;;19.86;38.48;101689.74;1776107;80;21182;-46
2021/09/04 00:03:07;;;;;;;7.90;3.75;;;;;;;19.83;38.53;101680.62;1780960;80;21572;-49
2021/09/04 00:05:33;;;;;;;10.48;5.53;;;;;;;19.82;38.64;101684.20;1769941;80;21517;-47
2021/09/04 00:08:00;;;;;;;6.78;4.58;;;;;;;19.81;38.74;101685.11;1766095;80;21062;-46
2021/09/04 00:10:28;;;;;;;6.67;4.03;;;;;;;19.79;38.90;101686.97;1752646;80;21501;-46
2021/09/04 00:12:55;;;;;;;5.40;3.55;;;;;;;19.78;39.06;101685.27;1766610;80;21006;-47
2021/09/04 00:15:26;;;;;;;5.65;3.52;;;;;;;19.77;39.22;101682.22;1769816;80;21132;-49
2021/09/04 00:17:51;;;;;;;5.33;3.75;;;;;;;19.77;39.18;101682.22;1750630;81;21050;-47
2021/09/04 00:20:19;;;;;;;7.15;4.03;;;;;;;19.76;39.22;101676.56;1747975;80;21091;-49
2021/09/04 00:22:46;;;;;;;11.10;4.20;;;;;;;19.76;39.36;101684.48;1773620;80;21007;-47
2021/09/04 00:25:12;;;;;;;5.85;3.75;;;;;;;19.76;39.34;101675.23;1759542;80;21018;-47
2021/09/04 00:27:39;;;;;;;8.40;4.00;;;;;;;19.75;39.32;101677.02;1763055;80;21514;-46
2021/09/04 00:30:07;;;;;;;5.12;3.65;;;;;;;19.75;39.37;101680.11;1760740;80;21066;-48
2021/09/04 00:32:36;;;;;;;6.55;3.80;;;;;;;19.76;39.40;101683.16;1761212;80;21024;-49
2021/09/04 00:35:04;;;;;;;5.40;3.75;;;;;;;19.75;39.34;101682.75;1769979;80;21561;-46
2021/09/04 00:37:30;;;;;;;5.28;3.42;;;;;;;19.76;39.32;101681.84;1752773;80;21500;-49
2021/09/04 00:39:58;;;;;;;6.37;3.70;;;;;;;19.76;39.44;101675.23;1765963;80;21019;-47
2021/09/04 00:42:25;;;;;;;6.00;3.42;;;;;;;19.75;39.57;101676.15;1764025;80;21031;-47
2021/09/04 00:44:51;;;;;;;7.33;4.00;;;;;;;19.75;39.69;101670.41;1756588;80;21038;-47
2021/09/04 00:47:18;;;;;;;7.08;4.17;;;;;;;19.75;39.82;101664.27;1760150;81;21012;-47
2021/09/04 00:49:45;;;;;;;9.00;3.65;;;;;;;19.75;39.87;101670.87;1770227;80;21523;-47
2021/09/04 00:52:11;;;;;;;7.22;3.62;;;;;;;19.75;39.96;101672.19;1778163;80;21034;-47
2021/09/04 00:54:39;;;;;;;4.67;3.20;;;;;;;19.75;39.97;101664.27;1755180;80;21027;-47
2021/09/04 00:57:06;;;;;;;6.70;3.85;;;;;;;19.74;40.07;101669.17;1750400;80;21074;-47
2021/09/04 00:59:33;;;;;;;5.78;3.80;;;;;;;19.75;40.07;101664.27;1742697;80;21038;-47
2021/09/04 01:02:00;;;;;;;6.72;3.45;;;;;;;19.75;40.08;101669.55;1759914;80;21057;-48
2021/09/04 01:04:27;;;;;;;5.17;3.60;;;;;;;19.74;40.00;101658.12;1759995;80;21549;-47
2021/09/04 01:06:57;;;;;;;5.33;3.58;;;;;;;19.74;39.92;101659.92;1763801;80;21066;-47
2021/09/04 01:09:23;;;;;;;7.17;4.25;;;;;;;19.74;39.78;101662.08;1762183;80;21065;-47
2021/09/04 01:11:52;;;;;;;4.42;3.92;;;;;;;19.75;39.89;101658.98;1749467;80;21010;-47
2021/09/04 01:14:20;;;;;;;7.62;3.98;;;;;;;19.74;39.90;101649.36;1758214;80;21045;-47
2021/09/04 01:16:47;;;;;;;7.62;3.92;;;;;;;19.74;39.81;101650.20;1775484;80;21490;-47
2021/09/04 01:19:13;;;;;;;5.42;3.50;;;;;;;19.74;39.84;101642.27;1758505;80;21025;-47
2021/09/04 01:21:40;;;;;;;7.60;4.15;;;;;;;19.75;39.76;101644.45;1762450;80;21594;-47
2021/09/04 01:24:08;;;;;;;7.50;4.42;;;;;;;19.75;39.52;101641.81;1749703;80;20983;-47
2021/09/04 01:26:35;;;;;;;6.03;3.70;;;;;;;19.75;39.42;101641.81;1759240;80;21042;-47
2021/09/04 01:29:02;;;;;;;6.75;3.98;;;;;;;19.74;39.44;101638.80;1757773;80;21053;-47
2021/09/04 01:31:29;;;;;;;3.80;3.37;;;;;;;19.73;39.37;101635.75;1763013;80;21035;-47
2021/09/04 01:33:56;;;;;;;5.60;4.03;;;;;;;19.73;39.48;101638.39;1761585;80;21041;-47
2021/09/04 01:36:36;;;;;;;6.75;4.25;;;;;;;19.72;39.46;101638.02;1757091;80;21037;-47
2021/09/04 01:39:04;;;;;;;7.40;4.03;;;;;;;19.70;39.51;101631.95;1720754;83;21089;-47
2021/09/04 01:41:31;;;;;;;10.20;4.47;;;;;;;19.70;39.40;101630.63;1718481;82;21085;-47
2021/09/04 01:43:58;;;;;;;6.05;3.90;;;;;;;19.67;39.40;101625.47;1703523;83;21155;-47
2021/09/04 01:46:26;;;;;;;5.67;3.95;;;;;;;19.65;39.44;101620.72;1711467;83;21007;-47
2021/09/04 01:48:54;;;;;;;6.60;4.28;;;;;;;19.64;39.49;101621.17;1714194;83;21202;-47
2021/09/04 01:51:21;;;;;;;6.08;4.42;;;;;;;19.63;39.31;101622.58;1721465;83;21006;-47
2021/09/04 01:53:48;;;;;;;6.80;4.15;;;;;;;19.64;39.21;101629.59;1670541;84;21070;-47
2021/09/04 01:56:14;;;;;;;5.33;3.77;;;;;;;19.65;39.15;101620.72;1655545;86;21051;-47
2021/09/04 01:58:42;;;;;;;5.95;3.77;;;;;;;19.66;39.17;101622.45;1647743;87;21527;-47
2021/09/04 02:01:09;;;;;;;7.58;3.67;;;;;;;19.65;39.03;101618.95;1666193;86;21086;-47
2021/09/04 02:03:36;;;;;;;5.62;3.77;;;;;;;19.65;38.87;101612.80;1665888;86;21553;-47
2021/09/04 02:06:04;;;;;;;5.95;4.28;;;;;;;19.66;38.87;101609.25;1651402;86;21042;-47
2021/09/04 02:08:32;;;;;;;6.50;3.92;;;;;;;19.65;38.84;101608.84;1710753;81;21039;-47
2021/09/04 02:10:59;;;;;;;8.35;4.45;;;;;;;19.65;38.85;101604.88;1722385;83;21526;-47
2021/09/04 02:13:27;;;;;;;8.68;4.22;;;;;;;19.64;38.95;101598.73;1688341;84;20979;-47
2021/09/04 02:15:55;;;;;;;6.47;4.00;;;;;;;19.65;39.05;101602.23;1664334;85;21083;-47
2021/09/04 02:18:25;;;;;;;6.37;3.72;;;;;;;19.64;39.05;101604.50;1678507;84;21070;-47
2021/09/04 02:20:53;;;;;;;7.87;4.60;;;;;;;19.62;39.04;101604.55;1718026;83;21062;-47
2021/09/04 02:23:20;;;;;;;16.07;4.37;;;;;;;19.60;39.12;101601.61;1705905;83;21058;-47
2021/09/04 02:25:48;;;;;;;9.25;4.17;;;;;;;19.59;39.16;101602.52;1715704;83;21057;-47
2021/09/04 02:28:15;;;;;;;9.63;3.80;;;;;;;19.56;39.20;101597.40;1719934;83;21022;-47
2021/09/04 02:30:43;;;;;;;5.12;3.52;;;;;;;19.54;39.21;101596.13;1709601;83;21066;-47
2021/09/04 02:33:10;;;;;;;12.35;4.55;;;;;;;19.53;39.06;101594.88;1716620;83;21014;-47
2021/09/04 02:35:38;;;;;;;12.07;4.78;;;;;;;19.51;39.04;101592.32;1689223;83;21072;-47
2021/09/04 02:38:07;;;;;;;7.78;3.40;;;;;;;19.49;39.13;101592.36;1760346;80;21034;-47
2021/09/04 02:40:36;;;;;;;7.97;4.05;;;;;;;19.48;39.11;101594.62;1760849;80;21039;-47
2021/09/04 02:43:03;;;;;;;9.60;4.80;;;;;;;19.45;39.23;101590.80;1773284;80;21085;-47
2021/09/04 02:45:32;;;;;;;10.80;3.95;;;;;;;19.44;39.32;101595.70;1757710;80;21027;-47
2021/09/04 02:48:00;;;;;;;10.32;3.72;;;;;;;19.42;39.40;101592.72;1750746;80;21022;-47
2021/09/04 02:50:29;;;;;;;6.67;3.60;;;;;;;19.39;39.48;101595.03;1774894;80;21041;-47
2021/09/04 02:52:56;;;;;;;7.83;4.10;;;;;;;19.39;39.57;101592.39;1763645;80;21081;-47
2021/09/04 02:55:24;;;;;;;9.90;4.62;;;;;;;19.39;39.67;101595.03;1752068;80;21082;-47
2021/09/04 02:57:52;;;;;;;6.72;4.35;;;;;;;19.38;39.79;101594.65;1738613;80;21034;-47
2021/09/04 03:00:19;;;;;;;7.20;3.72;;;;;;;19.38;39.89;101593.78;1747039;81;20999;-47
2021/09/04 03:02:48;;;;;;;9.93;4.22;;;;;;;19.37;40.01;101598.20;1769894;80;21530;-48
2021/09/04 03:05:18;;;;;;;7.83;4.58;;;;;;;19.36;40.21;101595.64;1763775;80;21539;-47
2021/09/04 03:07:44;;;;;;;6.70;3.85;;;;;;;19.33;40.22;101596.63;1765479;80;21471;-47
2021/09/04 03:10:11;;;;;;;6.12;4.03;;;;;;;19.33;40.29;101598.40;1752415;80;21014;-47
2021/09/04 03:12:39;;;;;;;4.97;3.75;;;;;;;19.33;40.33;101611.59;1759787;80;21022;-47
2021/09/04 03:15:07;;;;;;;7.85;4.08;;;;;;;19.31;40.28;101605.50;1768910;80;21034;-47
2021/09/04 03:17:34;;;;;;;7.53;4.22;;;;;;;19.29;40.34;101602.93;1759517;80;21021;-47
2021/09/04 03:20:02;;;;;;;10.18;4.45;;;;;;;19.28;40.41;101606.52;1755293;80;20998;-47
2021/09/04 03:22:30;;;;;;;8.35;4.70;;;;;;;19.28;40.47;101610.92;1749499;81;21121;-47
2021/09/04 03:24:58;;;;;;;10.85;4.70;;;;;;;19.25;40.51;101609.27;1777401;80;21045;-47
2021/09/04 03:27:26;;;;;;;13.15;4.03;;;;;;;19.23;40.65;101604.52;1771090;80;21030;-47
2021/09/04 03:29:54;;;;;;;6.78;3.87;;;;;;;19.23;40.72;101607.61;1755189;80;21082;-47
2021/09/04 03:32:22;;;;;;;6.35;4.10;;;;;;;19.20;40.77;101606.00;1753410;80;21060;-47
2021/09/04 03:34:52;;;;;;;6.70;4.03;;;;;;;19.19;40.87;101610.86;1765915;80;21030;-47
2021/09/04 03:37:19;;;;;;;6.22;3.83;;;;;;;19.20;40.99;101616.55;1773680;80;21057;-47
2021/09/04 03:39:48;;;;;;;8.33;4.50;;;;;;;19.19;41.10;101614.82;1757710;80;20994;-47
2021/09/04 03:42:15;;;;;;;9.40;4.17;;;;;;;19.17;41.17;101616.66;1753593;80;21015;-47
2021/09/04 03:44:43;;;;;;;7.08;4.10;;;;;;;19.17;41.20;101616.66;1766872;80;21129;-47
2021/09/04 03:47:10;;;;;;;4.75;4.05;;;;;;;19.17;41.23;101629.86;1762664;81;21025;-47
2021/09/04 03:49:37;;;;;;;6.08;3.87;;;;;;;19.17;41.26;101632.50;1776710;80;21117;-47
2021/09/04 03:52:05;;;;;;;8.58;4.50;;;;;;;19.17;41.33;101635.13;1770574;80;21053;-47
2021/09/04 03:54:32;;;;;;;6.53;4.37;;;;;;;19.18;41.43;101630.72;1768664;80;21355;-47
2021/09/04 03:56:59;;;;;;;8.90;5.33;;;;;;;19.17;41.60;101629.86;1767739;80;21035;-47
2021/09/04 03:59:26;;;;;;;11.38;4.75;;;;;;;19.18;41.68;101631.59;1757398;80;21038;-47
2021/09/04 04:01:53;;;;;;;5.72;4.42;;;;;;;19.18;41.82;101634.23;1772012;80;21002;-49
2021/09/04 04:04:21;;;;;;;8.20;4.30;;;;;;;19.20;41.92;101635.02;1765957;80;20971;-48
2021/09/04 04:06:49;;;;;;;7.85;4.62;;;;;;;19.20;42.05;101631.06;1761094;80;21034;-48
2021/09/04 04:09:19;;;;;;;8.65;4.15;;;;;;;19.23;42.02;101634.87;1772491;80;21014;-49
2021/09/04 04:11:46;;;;;;;6.92;4.45;;;;;;;19.24;42.02;101632.64;1757619;80;21007;-49
2021/09/04 04:14:14;;;;;;;6.70;4.50;;;;;;;19.26;42.09;101629.47;1765997;80;21090;-49
2021/09/04 04:16:42;;;;;;;12.70;4.50;;;;;;;19.29;42.11;101633.28;1759883;80;21038;-49
2021/09/04 04:19:10;;;;;;;11.43;4.45;;;;;;;19.31;42.19;101628.79;1754520;80;21104;-49
2021/09/04 04:21:37;;;;;;;6.85;4.53;;;;;;;19.34;42.26;101623.42;1756019;80;21019;-49
2021/09/04 04:24:05;;;;;;;7.80;4.08;;;;;;;19.37;42.36;101616.67;1760372;80;21070;-50
2021/09/04 04:26:33;;;;;;;7.50;5.00;;;;;;;19.39;42.37;101617.47;1766044;80;21004;-49
2021/09/04 04:29:00;;;;;;;7.53;4.25;;;;;;;19.42;42.29;101616.48;1771010;80;21026;-48
2021/09/04 04:31:28;;;;;;;7.70;5.10;;;;;;;19.43;42.27;101615.08;1753408;80;21069;-49
2021/09/04 04:33:56;;;;;;;11.22;4.83;;;;;;;19.46;42.29;101621.55;1777997;80;20994;-49
2021/09/04 04:36:24;;;;;;;6.50;4.12;;;;;;;19.49;42.23;101625.84;1767302;80;21029;-49
2021/09/04 04:38:51;;;;;;;10.58;5.10;;;;;;;19.52;42.30;101626.15;1761959;80;21546;-47
2021/09/04 04:41:17;;;;;;;6.65;4.62;;;;;;;19.56;42.35;101629.08;1756459;80;20983;-48
2021/09/04 04:43:46;;;;;;;9.85;5.15;;;;;;;19.58;42.36;101628.06;1770352;80;21031;-48
2021/09/04 04:46:15;;;;;;;9.68;5.08;;;;;;;19.63;42.47;101627.86;1765926;80;21051;-48
2021/09/04 04:48:43;;;;;;;8.95;4.92;;;;;;;19.66;42.57;101627.73;1751779;80;21042;-48
2021/09/04 04:51:10;;;;;;;8.53;4.45;;;;;;;19.69;42.60;101636.82;1745295;80;21523;-48
2021/09/04 04:53:37;;;;;;;7.00;4.28;;;;;;;19.72;42.71;101637.52;1770138;80;20979;-48
2021/09/04 04:56:06;;;;;;;7.10;5.20;;;;;;;19.77;42.81;101642.61;1752804;80;21019;-48
2021/09/04 04:58:33;;;;;;;7.65;4.55;;;;;;;19.80;42.89;101640.70;1754848;80;21030;-49
2021/09/04 05:01:01;;;;;;;11.43;5.35;;;;;;;19.85;42.88;101644.42;1761546;80;21587;-48
2021/09/04 05:03:28;;;;;;;11.43;5.55;;;;;;;19.90;42.85;101637.16;1728485;82;21093;-48
2021/09/04 05:05:59;;;;;;;9.08;4.75;;;;;;;19.95;42.84;101635.14;1690965;83;21502;-48
2021/09/04 05:08:29;;;;;;;7.03;4.87;;;;;;;20.01;42.81;101634.89;1707801;83;21058;-48
2021/09/04 05:10:57;;;;;;;10.20;5.65;;;;;;;20.05;42.71;101635.14;1757131;80;21027;-49
2021/09/04 05:13:25;;;;;;;9.95;5.12;;;;;;;20.10;42.65;101629.16;1757256;80;21022;-48
2021/09/04 05:15:53;;;;;;;6.42;4.20;;;;;;;20.15;42.54;101637.73;1773882;80;21030;-48
2021/09/04 05:18:20;;;;;;;6.28;4.17;;;;;;;20.22;42.28;101640.50;1765490;80;21031;-49
2021/09/04 05:20:48;;;;;;;6.42;4.97;;;;;;;20.26;42.14;101635.45;1759459;80;21064;-48
2021/09/04 05:23:15;;;;;;;8.85;4.67;;;;;;;20.30;42.12;101643.63;1760112;80;20975;-48
2021/09/04 05:25:44;;;;;;;6.95;4.55;;;;;;;20.34;42.21;101642.55;1758260;80;21531;-48
2021/09/04 05:28:11;;;;;;;6.08;4.30;;;;;;;20.39;42.39;101641.02;1761975;80;21042;-48
2021/09/04 05:30:39;;;;;;;9.45;4.15;;;;;;;20.44;42.43;101639.02;1756897;80;21070;-48
2021/09/04 05:33:05;;;;;;;7.60;5.17;;;;;;;20.49;42.45;101644.47;1742356;80;21050;-48
2021/09/04 05:35:32;;;;;;;5.87;4.37;;;;;;;20.53;42.53;101644.70;1757878;80;21039;-48
2021/09/04 05:37:59;;;;;;;10.55;4.90;;;;;;;20.58;42.64;101640.52;1757604;80;20987;-48
2021/09/04 05:40:26;;;;;;;6.33;4.53;;;;;;;20.63;42.71;101638.52;1758485;80;21065;-48
2021/09/04 05:42:52;;;;;;;12.95;4.90;;;;;;;20.67;42.80;101634.30;1767488;80;21015;-49
2021/09/04 05:45:20;;;;;;;9.30;4.78;;;;;;;20.73;42.81;101633.99;1769578;80;21045;-48
2021/09/04 05:47:46;;;;;;;9.05;4.72;;;;;;;20.80;42.96;101624.83;1755196;80;21471;-48
2021/09/04 05:50:13;;;;;;;16.87;4.60;;;;;;;20.83;42.77;101618.53;1757280;80;21023;-48
2021/09/04 05:52:40;;;;;;;7.53;5.08;;;;;;;20.88;42.80;101622.66;1771964;80;20987;-48
2021/09/04 05:55:08;;;;;;;7.92;5.00;;;;;;;20.93;42.82;101614.48;1764053;80;21015;-49
2021/09/04 05:57:34;;;;;;;15.65;8.33;;;;;;;20.99;42.63;101619.47;1778175;80;21026;-48
2021/09/04 06:00:05;;;;;;;21.68;10.28;;;;;;;21.06;42.75;101613.80;1783807;80;21018;-49
2021/09/04 06:02:33;;;;;;;20.00;10.43;;;;;;;21.20;42.82;101604.30;1779066;80;21494;-49
2021/09/04 06:05:00;;;;;;;16.02;8.65;;;;;;;21.43;42.50;101606.60;1750132;80;21080;-50
2021/09/04 06:07:26;;;;;;;15.63;6.87;;;;;;;21.80;41.97;101608.48;1765114;80;21055;-49
2021/09/04 06:09:54;;;;;;;12.82;5.78;;;;;;;22.23;41.01;101607.48;1768392;80;21034;-50
2021/09/04 06:12:20;;;;;;;12.82;6.40;;;;;;;22.64;40.45;101601.55;1773434;80;21022;-49
2021/09/04 06:14:49;;;;;;;8.98;6.20;;;;;;;22.94;39.81;101601.52;1762377;80;22402;-49
2021/09/04 06:17:16;;;;;;;10.95;5.20;;;;;;;23.16;39.44;101601.10;1776760;79;21493;-50
2021/09/04 06:19:43;;;;;;;8.95;4.80;;;;;;;23.36;38.90;101603.42;1756422;80;20999;-49
2021/09/04 06:22:09;;;;;;;23.40;5.55;;;;;;;23.52;38.55;101598.87;1757092;80;21027;-50
2021/09/04 06:24:38;;;;;;;13.18;5.08;;;;;;;23.66;38.30;101598.86;1761291;80;21042;-51
2021/09/04 06:27:04;;;;;;;8.53;3.90;;;;;;;23.76;38.03;101595.99;1758805;80;21026;-49
2021/09/04 06:29:31;;;;;;;6.28;4.12;;;;;;;23.82;37.37;101596.10;1776862;80;21011;-51
2021/09/04 06:31:58;;;;;;;7.30;4.35;;;;;;;23.86;37.27;101595.82;1755665;80;21023;-49
2021/09/04 06:34:25;;;;;;;9.63;4.47;;;;;;;23.90;37.30;101593.81;1768434;80;21514;-49
2021/09/04 06:36:52;;;;;;;17.57;6.30;;;;;;;23.91;37.29;101592.84;1770725;79;21043;-49
2021/09/04 06:39:19;;;;;;;18.48;8.90;;;;;;;23.91;37.50;101596.36;1784111;80;21038;-48
2021/09/04 06:41:46;;;;;;;18.65;9.45;;;;;;;23.90;37.35;101597.33;1754519;80;21003;-49
2021/09/04 06:44:13;;;;;;;27.90;13.62;;;;;;;23.88;37.60;101601.89;1761992;80;21617;-49
2021/09/04 06:46:41;;;;;;;26.48;14.18;;;;;;;23.88;37.62;101601.89;1768028;80;21011;-50
2021/09/04 06:49:08;;;;;;;33.60;17.27;;;;;;;23.87;37.71;101608.14;1768289;79;21034;-48
2021/09/04 06:51:35;;;;;;;34.63;17.70;;;;;;;23.90;38.23;101613.74;1765198;80;21519;-49
2021/09/04 06:54:02;;;;;;;27.50;14.00;;;;;;;23.92;39.06;101612.70;1776702;80;21050;-49
2021/09/04 06:56:28;;;;;;;45.95;15.80;;;;;;;23.94;39.57;101616.12;1774912;80;21508;-49
2021/09/04 06:58:55;;;;;;;22.60;12.98;;;;;;;23.96;39.51;101615.55;1769631;79;21039;-49
2021/09/04 07:01:22;;;;;;;21.52;12.88;;;;;;;23.96;39.36;101618.20;1775874;80;20991;-49
2021/09/04 07:03:49;;;;;;;25.15;13.30;;;;;;;23.95;39.10;101619.14;1757812;80;21026;-49
2021/09/04 07:06:15;;;;;;;21.97;11.30;;;;;;;23.95;39.05;101616.48;1762838;80;21487;-49
2021/09/04 07:08:42;;;;;;;21.40;11.20;;;;;;;23.98;39.45;101612.31;1779018;80;20999;-49
2021/09/04 07:11:09;;;;;;;24.67;11.68;;;;;;;24.03;39.57;101616.87;1784310;80;21030;-49
2021/09/04 07:13:38;;;;;;;25.23;13.25;;;;;;;24.09;39.16;101606.34;1777652;80;21043;-49
2021/09/04 07:16:05;;;;;;;23.50;11.05;;;;;;;24.16;39.17;101615.14;1740533;80;21013;-49
2021/09/04 07:18:33;;;;;;;13.75;8.10;;;;;;;24.22;39.96;101613.88;1754342;80;21053;-49
2021/09/04 07:21:01;;;;;;;10.43;6.45;;;;;;;24.27;40.52;101616.25;1758474;80;21105;-49
2021/09/04 07:23:28;;;;;;;18.40;6.90;;;;;;;24.34;40.50;101612.25;1759687;80;21063;-50
2021/09/04 07:25:55;;;;;;;12.45;5.58;;;;;;;24.41;40.67;101620.19;1760430;80;21016;-50
2021/09/04 07:28:22;;;;;;;7.83;4.97;;;;;;;24.47;40.44;101619.78;1760350;80;21514;-50
2021/09/04 07:30:49;;;;;;;8.75;4.90;;;;;;;24.52;40.63;101616.36;1762288;79;21092;-50
2021/09/04 07:33:16;;;;;;;9.03;5.30;;;;;;;24.50;40.61;101611.61;1774874;80;21009;-50
2021/09/04 07:35:43;;;;;;;7.58;4.85;;;;;;;24.50;41.12;101619.13;1752367;80;21468;-50
2021/09/04 07:38:09;;;;;;;12.53;5.37;;;;;;;24.50;40.69;101614.27;1763969;80;21113;-48
2021/09/04 07:40:36;;;;;;;9.70;4.80;;;;;;;24.51;40.55;101611.97;1765171;80;21014;-49
2021/09/04 07:43:07;;;;;;;7.17;4.90;;;;;;;24.50;40.46;101619.59;1760651;80;21639;-49
2021/09/04 07:45:33;;;;;;;9.70;5.65;;;;;;;24.50;40.35;101616.94;1757589;80;21059;-50
2021/09/04 07:48:00;;;;;;;8.43;4.55;;;;;;;24.49;40.62;101623.20;1765369;80;20998;-49
2021/09/04 07:50:27;;;;;;;15.00;5.33;;;;;;;24.48;40.37;101612.20;1757710;80;21011;-49
2021/09/04 07:52:53;;;;;;;6.17;4.55;;;;;;;24.50;40.22;101611.61;1766666;80;21046;-48
2021/09/04 07:55:21;;;;;;;7.72;4.65;;;;;;;24.52;39.77;101605.72;1775903;80;21026;-49
2021/09/04 07:57:48;;;;;;;5.42;4.12;;;;;;;24.57;40.09;101606.25;1777991;80;21069;-49
2021/09/04 08:00:16;;;;;;;10.10;4.47;;;;;;;24.65;40.25;101607.91;1782234;80;21013;-49
2021/09/04 08:02:43;;;;;;;6.95;4.03;;;;;;;24.68;40.24;101608.59;1755284;80;21659;-50
2021/09/04 08:05:10;;;;;;;12.60;4.72;;;;;;;24.73;39.66;101605.63;1750506;80;21063;-50
2021/09/04 08:07:39;;;;;;;11.85;4.47;;;;;;;24.76;39.28;101602.77;1744643;81;21521;-50
2021/09/04 08:10:07;;;;;;;6.83;4.28;;;;;;;24.78;38.72;101602.19;1762576;80;21495;-50
2021/09/04 08:12:34;;;;;;;7.53;4.90;;;;;;;24.80;38.54;101603.80;1765232;80;21058;-49
2021/09/04 08:15:01;;;;;;;8.00;4.95;;;;;;;24.81;39.05;101603.33;1772351;80;21046;-48
2021/09/04 08:17:27;;;;;;;10.23;4.85;;;;;;;24.84;39.96;101599.11;1762874;80;21478;-48
2021/09/04 08:19:57;;;;;;;5.55;4.60;;;;;;;24.86;40.44;101597.20;1770676;80;21033;-49
2021/09/04 08:22:24;;;;;;;6.83;4.40;;;;;;;24.86;40.61;101591.88;1766849;80;21006;-49
2021/09/04 08:24:53;;;;;;;6.70;4.20;;;;;;;24.88;40.03;101597.95;1776951;80;21130;-49
2021/09/04 08:27:19;;;;;;;7.03;3.98;;;;;;;24.89;39.37;101599.66;1768675;80;21600;-49
2021/09/04 08:29:46;;;;;;;6.12;4.25;;;;;;;24.91;38.73;101600.41;1784036;80;21026;-49
2021/09/04 08:32:13;;;;;;;7.65;4.05;;;;;;;24.92;39.14;101610.09;1754474;80;21519;-49
2021/09/04 08:34:40;;;;;;;6.53;4.40;;;;;;;24.93;38.89;101603.83;1763203;80;21140;-49
2021/09/04 08:37:08;;;;;;;8.15;4.50;;;;;;;24.92;39.84;101604.77;1752900;80;21049;-48
2021/09/04 08:39:35;;;;;;;11.43;5.20;;;;;;;24.94;40.65;101614.83;1768087;80;21534;-48
2021/09/04 08:42:02;;;;;;;8.18;6.05;;;;;;;24.93;41.16;101606.48;1777782;80;20958;-48
2021/09/04 08:44:31;;;;;;;9.00;5.90;;;;;;;24.98;40.74;101597.69;1761971;80;21574;-48
2021/09/04 08:46:58;;;;;;;9.70;5.00;;;;;;;25.04;40.58;101598.59;1755152;80;21034;-48
2021/09/04 08:49:25;;;;;;;7.87;5.70;;;;;;;25.12;40.64;101598.95;1767192;80;20979;-48
2021/09/04 08:51:52;;;;;;;7.10;5.47;;;;;;;25.20;40.53;101596.61;1767086;80;21087;-48
2021/09/04 08:54:18;;;;;;;11.40;5.83;;;;;;;25.24;40.89;101583.92;1746585;80;21624;-48
2021/09/04 08:56:45;;;;;;;8.35;5.35;;;;;;;25.29;40.86;101579.11;1771551;80;21006;-48
2021/09/04 08:59:11;;;;;;;6.55;4.75;;;;;;;25.31;40.47;101583.38;1753777;80;20964;-48
2021/09/04 09:01:46;;;;;;;7.67;4.70;;;;;;;25.33;39.95;101580.13;1762760;80;21030;-48
2021/09/04 09:04:18;;;;;;;5.62;4.25;;;;;;;25.36;38.56;101574.59;1759836;80;21014;-48
2021/09/04 09:06:46;;;;;;;8.05;4.70;;;;;;;25.38;38.45;101580.67;1775144;80;21013;-48
2021/09/04 09:09:22;;;;;;;6.55;4.85;;;;;;;25.43;38.55;101577.22;1757602;80;21058;-49
2021/09/04 09:11:55;;;;;;;6.10;4.42;;;;;;;25.47;39.49;101577.37;1744465;81;21502;-49
2021/09/04 09:14:24;;;;;;;13.13;5.87;;;;;;;25.47;39.49;101577.37;1692754;83;21034;-48
2021/09/04 09:16:59;;;;;;;10.68;6.05;;;;;;;25.50;39.68;101567.84;1697035;83;21112;-49
2021/09/04 09:19:30;;;;;;;8.78;5.33;;;;;;;25.55;39.99;101563.52;1701414;83;21089;-49
2021/09/04 09:21:57;;;;;;;7.50;5.00;;;;;;;25.63;40.71;101570.02;1691509;83;21049;-49
2021/09/04 09:24:25;;;;;;;6.17;4.25;;;;;;;25.70;40.37;101575.26;1693702;83;20990;-49
2021/09/04 09:26:58;;;;;;;8.25;4.12;;;;;;;25.76;39.94;101569.98;1697116;83;21132;-50
2021/09/04 09:29:31;;;;;;;5.85;3.98;;;;;;;25.80;40.05;101575.47;1629081;87;21159;-49
2021/09/04 09:32:06;;;;;;;;;;;;;;;25.82;40.28;101573.03;1626396;87;21148;-49
2021/09/04 09:34:45;;;;;;;9.08;4.42;;;;;;;25.88;39.37;101577.56;1626121;87;20151;-49
2021/09/04 09:37:13;;;;;;;10.53;4.40;;;;;;;25.94;38.42;101574.45;1623004;88;21557;-50
2021/09/04 09:39:43;;;;;;;6.17;4.25;;;;;;;25.99;37.50;101564.32;1625392;87;21172;-49
2021/09/04 09:42:12;;;;;;;6.37;3.83;;;;;;;25.99;37.34;101562.48;1531425;93;21134;-49
2021/09/04 09:44:40;;;;;;;6.35;4.17;;;;;;;25.99;37.47;101565.15;1530628;93;21157;-49
2021/09/04 09:47:09;;;;;;;29.55;5.85;;;;;;;25.98;37.77;101572.80;1530828;93;21104;-49
2021/09/04 09:49:39;;;;;;;6.37;3.80;;;;;;;25.96;37.67;101573.86;1528097;93;21195;-50
2021/09/04 09:52:11;;;;;;;6.47;5.28;;;;;;;25.96;37.67;101569.86;1513540;93;21121;-49
2021/09/04 09:54:38;;;;;;;7.75;4.87;;;;;;;25.92;37.75;101572.38;1531371;93;21077;-49
2021/09/04 09:57:07;;;;;;;7.78;5.72;;;;;;;25.91;38.35;101562.66;1532349;93;21085;-49
2021/09/04 09:59:34;;;;;;;8.78;7.70;;;;;;;25.89;38.72;101558.78;1529317;94;21123;-49
2021/09/04 10:02:07;;;;;;;12.60;7.90;;;;;;;25.83;38.76;101561.42;1478190;96;21173;-49
2021/09/04 10:04:35;;;;;;;8.53;5.80;;;;;;;25.81;38.15;101559.83;1531233;93;21147;-49
2021/09/04 10:07:07;;;;;;;7.08;4.92;;;;;;;25.79;37.80;101561.75;1499489;95;21150;-49
2021/09/04 10:09:35;;;;;;;8.25;4.10;;;;;;;25.79;37.38;101561.28;1472226;96;21145;-50
2021/09/04 10:12:03;;;;;;;5.15;3.98;;;;;;;25.78;37.00;101569.39;1522910;93;21178;-49
2021/09/04 10:14:29;;;;;;;5.25;3.52;;;;;;;25.79;36.42;101571.94;1523174;92;21633;-49
2021/09/04 10:16:58;;;;;;;7.30;4.42;;;;;;;25.79;36.06;101567.95;1522535;93;21058;-49
2021/09/04 10:19:29;;;;;;;4.90;4.37;;;;;;;25.78;35.93;101570.22;1541674;90;21133;-49
2021/09/04 10:22:02;;;;;;;6.28;4.42;;;;;;;25.77;35.81;101565.87;1561482;90;21043;-49
2021/09/04 10:24:47;;;;;;;4.05;3.65;;;;;;;25.86;35.52;101556.83;1556224;91;21074;-49
2021/09/04 10:27:17;;;;;;;5.25;3.45;;;;;;;25.86;35.52;101556.83;1528896;93;21246;-49
2021/09/04 10:29:46;;;;;;;5.28;3.85;;;;;;;25.98;34.92;101563.94;1529613;92;21852;-49
2021/09/04 10:32:15;;;;;;;5.15;3.30;;;;;;;26.06;34.60;101561.08;1540782;91;21591;-49
2021/09/04 10:34:44;;;;;;;6.75;3.80;;;;;;;26.13;34.47;101547.67;1549656;92;21579;-50
2021/09/04 10:37:17;;;;;;;4.75;3.87;;;;;;;26.13;34.47;101547.67;1534489;93;21614;-49
2021/09/04 10:40:02;;;;;;;6.12;3.80;;;;;;;26.17;34.62;101557.66;1610404;86;21050;-49
2021/09/04 10:42:33;;;;;;;5.08;3.87;;;;;;;26.16;34.71;101559.47;1668639;84;21092;-49
2021/09/04 10:45:09;;;;;;;6.55;3.50;;;;;;;26.14;34.82;101560.53;1690013;84;21144;-49
2021/09/04 10:47:50;;;;;;;3.77;3.30;;;;;;;26.06;35.55;101568.22;1676357;84;21058;-49
2021/09/04 10:50:26;;;;;;;6.53;5.92;;;;;;;26.06;35.55;101568.22;1674876;84;21010;-49
2021/09/04 10:52:56;;;;;;;8.63;5.80;;;;;;;26.00;35.92;101554.00;1672779;84;21062;-49
2021/09/04 10:55:30;;;;;;;6.53;5.37;;;;;;;26.04;36.17;101564.81;1663588;84;21038;-49
2021/09/04 10:58:16;;;;;;;5.05;4.22;;;;;;;26.01;37.49;101559.73;1667242;84;21754;-49
2021/09/04 11:00:49;;;;;;;7.58;4.40;;;;;;;26.01;37.49;101559.73;1672586;84;21038;-49
2021/09/04 11:03:21;;;;;;;5.33;4.35;;;;;;;26.06;38.20;101556.22;1610552;87;21128;-49
2021/09/04 11:05:56;;;;;;;5.00;4.50;;;;;;;26.06;38.20;101556.22;1608237;88;21525;-49
2021/09/04 11:08:38;;;;;;;5.45;4.35;;;;;;;26.06;38.33;101554.89;1626800;87;21026;-49
2021/09/04 11:11:36;;;;;;;3.55;3.25;;;;;;;26.08;38.13;101560.99;1621667;87;21066;-49
2021/09/04 11:14:22;;;;;;;5.70;4.17;;;;;;;26.12;37.92;101551.80;1629067;87;21593;-50
2021/09/04 11:16:58;;;;;;;6.50;4.15;;;;;;;26.12;37.92;101551.80;1585258;90;21119;-50
2021/09/04 11:19:31;;;;;;;4.97;4.10;;;;;;;26.17;37.16;101553.66;1584214;90;21607;-49
2021/09/04 11:22:06;;;;;;;8.20;4.22;;;;;;;26.16;37.05;101551.94;1581803;90;21549;-49
2021/09/04 11:24:36;;;;;;;4.78;4.28;;;;;;;26.18;37.21;101557.53;1575641;90;21097;-48
2021/09/04 11:27:09;;;;;;;4.67;4.28;;;;;;;26.14;37.59;101549.87;1580283;90;21089;-48
2021/09/04 11:29:38;;;;;;;7.42;4.67;;;;;;;26.15;38.71;101546.25;1586778;89;21050;-48